Time;durP1;ratioP1;P1;durP2;ratioP2;P2;SDS_P1;SDS_P2;PMS_P1;PMS_P2;Temp;Humidity;BMP_temperature;BMP_pressure;BME280_temperature;BME280_humidity;BME280_pressure;Samples;Min_cycle;Max_cycle;Signal;HPM_P1;HPM_P2
2023/02/05 00:01:31;;;;;;;9.20;4.88;;;;;;;-0.24;100.00;101094.72;5064229;28;20049;-79
2023/02/05 00:03:58;;;;;;;7.90;4.32;;;;;;;-0.24;100.00;101087.56;5068985;28;20064;-80
2023/02/05 00:06:25;;;;;;;12.43;5.13;;;;;;;-0.34;100.00;101074.69;5070248;28;20049;-79
2023/02/05 00:08:52;;;;;;;11.50;5.88;;;;;;;-0.33;100.00;101073.75;5065607;28;20056;-79
2023/02/05 00:11:18;;;;;;;12.13;5.68;;;;;;;-0.38;100.00;101081.97;5069142;28;20052;-79
2023/02/05 00:13:46;;;;;;;11.95;5.57;;;;;;;-0.41;100.00;101079.44;5069333;28;20480;-79
2023/02/05 00:16:15;;;;;;;11.27;5.82;;;;;;;-0.50;100.00;101063.81;5059274;28;20051;-79
2023/02/05 00:18:41;;;;;;;13.80;5.80;;;;;;;-0.49;100.00;101055.72;5063957;28;20407;-79
2023/02/05 00:21:10;;;;;;;9.70;5.32;;;;;;;-0.34;100.00;101080.91;5065119;28;20044;-79
2023/02/05 00:23:37;;;;;;;14.75;6.45;;;;;;;-0.49;100.00;101047.72;5071242;28;20075;-79
2023/02/05 00:26:05;;;;;;;12.15;5.85;;;;;;;-0.31;100.00;101063.88;5069100;28;20492;-79
2023/02/05 00:28:32;;;;;;;12.65;5.47;;;;;;;-0.17;100.00;101052.56;5062741;28;20441;-79
2023/02/05 00:31:01;;;;;;;10.30;4.88;;;;;;;-0.21;100.00;101046.44;5065426;28;20071;-78
2023/02/05 00:33:27;;;;;;;13.13;4.85;;;;;;;-0.26;100.00;101049.34;5069145;28;20059;-79
2023/02/05 00:35:54;;;;;;;14.00;5.57;;;;;;;-0.12;100.00;101067.44;5068909;28;20051;-79
2023/02/05 00:38:20;;;;;;;12.25;5.95;;;;;;;-0.16;100.00;101060.50;5064218;28;20060;-79
2023/02/05 00:40:47;;;;;;;12.30;6.07;;;;;;;-0.28;100.00;101034.34;5070584;28;20047;-79
2023/02/05 00:43:13;;;;;;;15.65;6.82;;;;;;;-0.14;100.00;101066.63;5058064;28;20053;-79
2023/02/05 00:45:40;;;;;;;20.38;6.68;;;;;;;-0.15;100.00;101059.56;5063139;28;20052;-79
2023/02/05 00:48:08;;;;;;;17.35;7.93;;;;;;;-0.07;100.00;101077.94;5068538;28;20051;-79
2023/02/05 00:50:35;;;;;;;19.88;8.13;;;;;;;-0.14;100.00;101057.75;5068540;28;20044;-79
2023/02/05 00:53:02;;;;;;;18.33;7.40;;;;;;;0.03;100.00;101063.22;5067378;28;20048;-79
2023/02/05 00:55:28;;;;;;;16.02;7.10;;;;;;;-0.04;100.00;101046.56;5066104;28;20049;-79
2023/02/05 00:57:55;;;;;;;12.55;6.85;;;;;;;-0.04;100.00;101059.06;5069843;28;20053;-79
2023/02/05 01:00:22;;;;;;;14.82;6.63;;;;;;;0.12;100.00;101067.22;5069001;28;20048;-79
2023/02/05 01:02:49;;;;;;;15.18;5.35;;;;;;;0.20;100.00;101077.56;5066965;28;20058;-79
2023/02/05 01:05:17;;;;;;;10.52;6.07;;;;;;;-0.04;100.00;101048.38;5066949;28;20401;-79
2023/02/05 01:07:43;;;;;;;9.77;5.13;;;;;;;0.03;100.00;101065.88;5061032;28;20040;-79
2023/02/05 01:10:10;;;;;;;11.38;5.38;;;;;;;-0.12;100.00;101032.69;5068871;28;20052;-79
2023/02/05 01:12:36;;;;;;;14.55;5.25;;;;;;;0.06;100.00;101052.38;5059934;28;20055;-79
2023/02/05 01:15:05;;;;;;;8.63;5.75;;;;;;;0.08;100.00;101045.13;5061147;28;20044;-79
2023/02/05 01:17:31;;;;;;;11.32;6.28;;;;;;;-0.10;100.00;101032.63;5067586;28;20058;-79
2023/02/05 01:19:58;;;;;;;9.73;5.15;;;;;;;0.01;100.00;101050.84;5067665;28;20048;-79
2023/02/05 01:22:26;;;;;;;16.58;5.68;;;;;;;-0.16;100.00;101008.84;5065588;28;20048;-79
2023/02/05 01:24:52;;;;;;;12.57;5.65;;;;;;;0.00;100.00;101036.63;5068924;28;20048;-79
2023/02/05 01:27:19;;;;;;;10.00;5.93;;;;;;;0.14;100.00;101041.31;5062097;28;20055;-78
2023/02/05 01:29:46;;;;;;;12.90;6.18;;;;;;;-0.05;100.00;101023.44;5061289;28;20057;-79
2023/02/05 01:32:12;;;;;;;25.70;6.05;;;;;;;-0.10;100.00;101030.81;5068477;28;20045;-79
2023/02/05 01:34:39;;;;;;;13.30;5.28;;;;;;;-0.03;100.00;101037.63;5067298;28;20051;-79
2023/02/05 01:37:05;;;;;;;10.98;5.35;;;;;;;-0.02;100.00;101031.31;5068012;28;20522;-79
2023/02/05 01:39:35;;;;;;;17.40;5.80;;;;;;;0.21;100.00;101052.56;5063378;28;20053;-79
2023/02/05 01:42:01;;;;;;;12.65;6.03;;;;;;;0.26;100.00;101043.41;5064041;28;20048;-79
2023/02/05 01:44:29;;;;;;;21.67;6.53;;;;;;;0.13;100.00;101021.69;5064261;28;20049;-79
2023/02/05 01:46:56;;;;;;;9.95;5.18;;;;;;;-0.09;100.00;101004.94;5063379;28;20055;-79
2023/02/05 01:49:27;;;;;;;12.75;6.35;;;;;;;0.07;100.00;101023.81;5060060;28;20653;-79
2023/02/05 01:51:58;;;;;;;14.68;5.45;;;;;;;0.05;100.00;101015.00;5068641;28;20407;-79
2023/02/05 01:54:28;;;;;;;9.85;5.32;;;;;;;0.10;100.00;101020.97;5067354;28;20386;-79
2023/02/05 01:57:02;;;;;;;9.40;4.82;;;;;;;0.06;100.00;101012.25;5066417;28;20345;-79
2023/02/05 01:59:32;;;;;;;12.32;5.82;;;;;;;0.17;100.00;101017.09;5069749;28;20052;-79
2023/02/05 02:02:00;;;;;;;10.43;5.50;;;;;;;0.07;100.00;101007.75;5060460;28;20135;-79
2023/02/05 02:04:36;;;;;;;8.68;4.78;;;;;;;0.12;100.00;101006.59;5064676;28;20408;-79
2023/02/05 02:07:03;;;;;;;15.82;4.70;;;;;;;0.14;100.00;100986.00;5056202;28;20059;-79
2023/02/05 02:09:29;;;;;;;11.68;5.05;;;;;;;0.18;100.00;101000.06;5064418;28;20045;-79
2023/02/05 02:12:00;;;;;;;9.23;4.78;;;;;;;0.28;100.00;101003.19;5059869;28;20056;-79
2023/02/05 02:14:30;;;;;;;12.30;5.30;;;;;;;0.08;100.00;100970.25;5062008;28;20403;-79
2023/02/05 02:16:58;;;;;;;10.57;5.03;;;;;;;0.06;100.00;100963.22;5068204;28;20052;-79
2023/02/05 02:19:31;;;;;;;8.13;4.30;;;;;;;0.01;100.00;100947.41;5068251;28;20061;-79
2023/02/05 02:22:22;;;;;;;6.57;3.38;;;;;;;0.13;100.00;100959.31;5061713;28;20044;-79
2023/02/05 02:25:12;;;;;;;6.55;3.28;;;;;;;0.06;100.00;100957.88;5058534;28;20052;-79
2023/02/05 02:27:44;;;;;;;;;;;;;;;0.23;100.00;100989.19;5061714;28;20052;-79
2023/02/05 02:30:17;;;;;;;7.22;3.45;;;;;;;0.02;100.00;100950.97;5061714;28;19925;-79
2023/02/05 02:32:49;;;;;;;8.38;4.50;;;;;;;0.15;100.00;100963.66;5055143;28;20063;-79
2023/02/05 02:35:22;;;;;;;10.48;4.95;;;;;;;0.14;100.00;100959.25;5061440;28;20041;-79
2023/02/05 02:37:56;;;;;;;9.55;3.58;;;;;;;0.10;100.00;100963.00;5062124;28;20052;-79
2023/02/05 02:40:29;;;;;;;11.75;4.97;;;;;;;0.12;100.00;100958.47;5057949;28;20049;-79
2023/02/05 02:43:05;;;;;;;6.03;3.33;;;;;;;0.09;100.00;100963.97;5058920;28;20047;-79
2023/02/05 02:45:35;;;;;;;6.25;3.38;;;;;;;0.06;100.00;100958.75;5047048;28;20053;-79
2023/02/05 02:48:05;;;;;;;6.22;3.42;;;;;;;0.24;100.00;100961.47;5049794;28;20052;-79
2023/02/05 02:50:36;;;;;;;4.53;3.33;;;;;;;0.17;100.00;100958.25;5054785;28;20049;-79
2023/02/05 02:53:08;;;;;;;5.38;3.10;;;;;;;0.26;100.00;100949.75;5057330;28;20052;-79
2023/02/05 02:55:38;;;;;;;6.53;3.65;;;;;;;0.26;100.00;100956.94;5047607;28;20048;-79
2023/02/05 02:58:08;;;;;;;;;;;;;;;0.33;100.00;100967.25;5057877;28;20440;-79
2023/02/05 03:00:38;;;;;;;3.92;2.80;;;;;;;0.24;100.00;100956.13;5056968;28;19920;-79
2023/02/05 03:03:08;;;;;;;6.75;3.13;;;;;;;0.45;100.00;100967.59;5062275;28;20044;-79
2023/02/05 03:05:36;;;;;;;8.48;2.63;;;;;;;0.30;100.00;100929.06;5062150;28;20049;-79
2023/02/05 03:08:06;;;;;;;3.45;2.30;;;;;;;0.37;100.00;100930.50;5061297;28;20053;-79
2023/02/05 03:10:41;;;;;;;4.22;2.83;;;;;;;0.49;100.00;100955.78;5050776;28;20045;-79
2023/02/05 03:13:10;;;;;;;6.45;3.20;;;;;;;0.33;100.00;100936.94;5056907;28;20044;-79
2023/02/05 03:15:37;;;;;;;7.32;3.05;;;;;;;0.32;100.00;100936.09;5057066;28;20106;-79
2023/02/05 03:18:04;;;;;;;10.05;2.78;;;;;;;0.43;100.00;100950.75;5065819;28;20044;-79
2023/02/05 03:20:34;;;;;;;4.95;3.13;;;;;;;0.28;100.00;100936.31;5061202;28;20049;-79
2023/02/05 03:23:01;;;;;;;5.72;2.67;;;;;;;0.31;100.00;100929.00;5062304;28;20052;-79
2023/02/05 03:25:29;;;;;;;6.32;2.70;;;;;;;0.33;100.00;100927.13;5063978;28;20087;-78
2023/02/05 03:27:57;;;;;;;6.40;2.65;;;;;;;0.43;100.00;100943.56;5063790;28;20057;-79
2023/02/05 03:30:30;;;;;;;9.95;2.85;;;;;;;0.41;100.00;100952.63;5064545;28;20056;-79
2023/02/05 03:33:06;;;;;;;6.03;2.70;;;;;;;0.37;100.00;100929.66;5053711;28;20037;-79
2023/02/05 03:35:40;;;;;;;7.60;2.90;;;;;;;0.22;100.00;100904.50;5067717;28;20048;-79
2023/02/05 03:38:20;;;;;;;4.93;2.88;;;;;;;0.23;100.00;100903.59;5065891;28;20059;-79
2023/02/05 03:40:52;;;;;;;5.55;3.25;;;;;;;0.31;100.00;100917.44;5068708;28;20079;-79
2023/02/05 03:43:32;;;;;;;8.02;3.00;;;;;;;0.19;100.00;100900.19;5065630;28;20048;-79
2023/02/05 03:46:05;;;;;;;3.92;2.30;;;;;;;0.23;100.00;100920.50;5066188;28;20184;-79
2023/02/05 03:48:48;;;;;;;5.40;2.55;;;;;;;0.11;100.00;100899.69;5065639;28;20061;-79
2023/02/05 03:51:23;;;;;;;4.88;3.00;;;;;;;0.23;100.00;100933.88;5067695;28;20051;-79
2023/02/05 03:54:01;;;;;;;7.13;3.40;;;;;;;0.03;100.00;100897.41;5073446;28;20388;-79
2023/02/05 03:56:34;;;;;;;3.78;2.85;;;;;;;0.15;100.00;100917.31;5066648;28;20048;-79
2023/02/05 03:59:03;;;;;;;6.80;3.17;;;;;;;0.03;100.00;100896.53;5073204;28;20411;-79
2023/02/05 04:01:31;;;;;;;5.78;2.65;;;;;;;0.13;100.00;100919.19;5064250;28;20047;-79
2023/02/05 04:03:58;;;;;;;6.50;2.65;;;;;;;-0.01;100.00;100896.66;5072145;28;20055;-79
2023/02/05 04:06:25;;;;;;;4.18;2.33;;;;;;;-0.05;100.00;100896.91;5063730;28;20048;-79
2023/02/05 04:08:51;;;;;;;4.03;2.45;;;;;;;-0.04;100.00;100890.63;5068826;28;20114;-79
2023/02/05 04:11:18;;;;;;;3.97;2.78;;;;;;;0.00;100.00;100902.91;5060044;28;20060;-79
2023/02/05 04:13:44;;;;;;;6.25;3.33;;;;;;;-0.02;100.00;100912.78;5070862;28;20052;-79
2023/02/05 04:16:11;;;;;;;3.67;2.70;;;;;;;-0.10;100.00;100904.28;5064240;28;20053;-79
2023/02/05 04:18:39;;;;;;;5.43;2.65;;;;;;;0.00;100.00;100921.63;5071754;28;20044;-79
2023/02/05 04:21:05;;;;;;;3.33;2.25;;;;;;;-0.19;100.00;100885.06;5072530;28;20045;-79
2023/02/05 04:23:32;;;;;;;4.95;3.25;;;;;;;-0.21;100.00;100902.09;5070306;28;20079;-79
2023/02/05 04:25:58;;;;;;;6.57;3.17;;;;;;;-0.20;100.00;100894.03;5065683;28;20040;-79
2023/02/05 04:28:25;;;;;;;8.70;3.00;;;;;;;-0.10;100.00;100913.16;5070805;28;20254;-79
2023/02/05 04:30:51;;;;;;;5.43;2.42;;;;;;;-0.08;100.00;100923.78;5068023;28;20048;-79
2023/02/05 04:33:18;;;;;;;5.60;3.00;;;;;;;-0.28;100.00;100893.53;5071772;28;20411;-79
2023/02/05 04:35:46;;;;;;;5.82;3.17;;;;;;;-0.30;100.00;100895.41;5073048;28;20049;-79
2023/02/05 04:38:12;;;;;;;6.18;2.92;;;;;;;-0.02;100.00;100916.31;5069488;28;20059;-79
2023/02/05 04:40:39;;;;;;;6.85;3.08;;;;;;;-0.20;100.00;100899.38;5065399;28;20045;-79
2023/02/05 04:43:05;;;;;;;13.27;3.17;;;;;;;-0.15;100.00;100912.53;5070943;28;20215;-79
2023/02/05 04:45:32;;;;;;;4.10;2.72;;;;;;;-0.35;100.00;100900.09;5071489;28;20700;-79
2023/02/05 04:47:59;;;;;;;5.78;2.72;;;;;;;-0.27;100.00;100924.66;5067894;28;20432;-79
2023/02/05 04:50:26;;;;;;;6.13;3.05;;;;;;;-0.35;100.00;100924.16;5064517;28;20466;-79
2023/02/05 04:52:54;;;;;;;6.38;3.22;;;;;;;-0.39;100.00;100912.75;5066600;28;20055;-79
2023/02/05 04:55:21;;;;;;;4.93;2.80;;;;;;;-0.40;100.00;100921.69;5068983;28;20053;-79
2023/02/05 04:57:48;;;;;;;4.70;2.88;;;;;;;-0.34;100.00;100917.88;5072838;28;20049;-79
2023/02/05 05:00:15;;;;;;;5.70;2.75;;;;;;;-0.56;100.00;100883.25;5066024;28;20045;-79
2023/02/05 05:02:41;;;;;;;7.38;3.53;;;;;;;-0.51;100.00;100910.66;5072212;28;20064;-79
2023/02/05 05:05:08;;;;;;;8.15;3.22;;;;;;;-0.53;100.00;100901.81;5066812;28;20502;-79
2023/02/05 05:07:35;;;;;;;5.00;2.58;;;;;;;-0.52;100.00;100911.56;5069992;28;20432;-79
2023/02/05 05:10:03;;;;;;;4.10;2.80;;;;;;;-0.54;100.00;100922.34;5065644;28;20052;-79
2023/02/05 05:12:29;;;;;;;4.35;2.70;;;;;;;-0.54;100.00;100910.78;5068784;28;20070;-79
2023/02/05 05:14:56;;;;;;;4.43;2.83;;;;;;;-0.47;100.00;100935.41;5067628;28;20041;-79
2023/02/05 05:17:22;;;;;;;5.07;2.53;;;;;;;-0.61;100.00;100907.53;5072769;28;20049;-79
2023/02/05 05:19:49;;;;;;;3.78;2.42;;;;;;;-0.52;100.00;100929.44;5071571;28;20404;-79
2023/02/05 05:22:15;;;;;;;4.53;3.03;;;;;;;-0.39;100.00;100939.47;5067540;28;20036;-79
2023/02/05 05:24:42;;;;;;;6.32;2.78;;;;;;;-0.37;100.00;100931.38;5070856;28;20134;-79
2023/02/05 05:27:10;;;;;;;4.45;2.72;;;;;;;-0.54;100.00;100900.97;5072607;28;20051;-79
2023/02/05 05:29:37;;;;;;;8.30;2.42;;;;;;;-0.30;100.00;100926.59;5058971;28;20041;-79
2023/02/05 05:32:04;;;;;;;6.18;2.92;;;;;;;-0.46;100.00;100903.28;5068176;28;20423;-79
2023/02/05 05:34:31;;;;;;;7.07;2.65;;;;;;;-0.49;100.00;100898.06;5055115;28;20519;-79
2023/02/05 05:36:57;;;;;;;4.05;2.72;;;;;;;-0.41;100.00;100901.25;5066526;28;20045;-79
2023/02/05 05:44:59;;;;;;;9.27;2.65;;;;;;;-0.38;100.00;100916.28;5051792;28;20075;-79
2023/02/05 05:47:25;;;;;;;6.45;3.13;;;;;;;-0.32;100.00;100920.47;5070477;28;20057;-79
2023/02/05 05:49:52;;;;;;;6.10;2.70;;;;;;;-0.31;100.00;100903.50;5070773;28;20509;-79
2023/02/05 05:52:18;;;;;;;6.93;2.92;;;;;;;-0.40;100.00;100875.41;5063762;28;20045;-79
2023/02/05 05:54:45;;;;;;;5.28;3.20;;;;;;;-0.21;100.00;100908.34;5065055;28;20044;-79
2023/02/05 05:57:12;;;;;;;3.78;2.53;;;;;;;-0.36;100.00;100887.69;5059322;28;20076;-79
2023/02/05 05:59:40;;;;;;;3.22;2.72;;;;;;;-0.34;100.00;100882.28;5056134;28;20048;-79
2023/02/05 06:02:06;;;;;;;7.75;2.92;;;;;;;-0.19;100.00;100903.78;5067020;28;20045;-79
2023/02/05 06:04:33;;;;;;;9.18;2.90;;;;;;;-0.32;100.00;100883.91;5068301;28;20045;-79
2023/02/05 06:07:01;;;;;;;4.93;2.97;;;;;;;-0.29;100.00;100901.63;5066854;28;20048;-79
2023/02/05 06:09:27;;;;;;;7.28;2.42;;;;;;;-0.46;100.00;100879.22;5069976;28;20052;-79
2023/02/05 06:11:54;;;;;;;7.53;3.20;;;;;;;-0.34;100.00;100907.19;5068988;28;20803;-79
2023/02/05 06:14:21;;;;;;;6.22;2.50;;;;;;;-0.33;100.00;100913.38;5065852;28;20052;-79
2023/02/05 06:16:50;;;;;;;3.55;2.63;;;;;;;-0.27;100.00;100929.13;5061373;28;20401;-79
2023/02/05 06:19:17;;;;;;;3.38;2.88;;;;;;;-0.27;100.00;100910.41;5062636;28;20052;-79
2023/02/05 06:21:43;;;;;;;10.25;3.20;;;;;;;-0.32;100.00;100899.09;5064200;28;20508;-79
2023/02/05 06:24:10;;;;;;;7.40;3.80;;;;;;;-0.12;100.00;100920.41;5064082;28;20143;-79
2023/02/05 06:26:36;;;;;;;12.27;6.65;;;;;;;-0.36;100.00;100880.53;5071392;28;20048;-78
2023/02/05 06:29:03;;;;;;;8.15;5.07;;;;;;;-0.25;100.00;100890.69;5070184;28;20041;-79
2023/02/05 06:31:30;;;;;;;7.38;4.57;;;;;;;-0.24;100.00;100883.53;5062341;28;20507;-79
2023/02/05 06:33:57;;;;;;;5.82;4.57;;;;;;;-0.22;100.00;100900.38;5056828;28;20055;-79
2023/02/05 06:36:24;;;;;;;7.18;4.32;;;;;;;-0.41;100.00;100874.50;5055466;28;20049;-79
2023/02/05 06:38:51;;;;;;;8.55;4.05;;;;;;;-0.20;100.00;100914.53;5069000;28;20392;-79
2023/02/05 06:41:17;;;;;;;7.25;4.18;;;;;;;-0.33;100.00;100884.88;5066286;28;20119;-79
2023/02/05 06:43:44;;;;;;;8.95;3.72;;;;;;;-0.28;100.00;100898.88;5069057;28;20058;-79
2023/02/05 06:46:10;;;;;;;8.65;3.63;;;;;;;-0.34;100.00;100892.97;5070822;28;20060;-78
2023/02/05 06:48:37;;;;;;;5.95;3.50;;;;;;;-0.36;100.00;100890.38;5067393;28;20048;-79
2023/02/05 06:51:05;;;;;;;6.32;3.15;;;;;;;-0.12;100.00;100932.88;5064325;28;20056;-79
2023/02/05 06:53:32;;;;;;;5.63;2.78;;;;;;;-0.09;100.00;100928.28;5059332;28;20049;-79
2023/02/05 06:55:59;;;;;;;4.28;2.88;;;;;;;-0.09;100.00;100917.59;5070523;28;20496;-78
2023/02/05 06:58:25;;;;;;;6.75;3.10;;;;;;;-0.20;100.00;100890.47;5070006;28;20140;-79
2023/02/05 07:00:52;;;;;;;4.03;2.80;;;;;;;-0.17;100.00;100890.34;5070481;28;20063;-79
2023/02/05 07:03:18;;;;;;;6.90;2.50;;;;;;;0.10;100.00;100927.38;5057982;28;20048;-79
2023/02/05 07:05:45;;;;;;;5.68;2.90;;;;;;;0.11;100.00;100945.16;5049987;28;20059;-79
2023/02/05 07:08:13;;;;;;;5.25;3.08;;;;;;;0.09;100.00;100921.16;5056478;28;20041;-79
2023/02/05 07:10:39;;;;;;;11.95;4.15;;;;;;;0.17;100.00;100926.16;5068891;28;20052;-79
2023/02/05 07:13:06;;;;;;;9.57;3.60;;;;;;;0.06;100.00;100915.97;5066035;28;20048;-79
2023/02/05 07:15:35;;;;;;;10.32;3.22;;;;;;;-0.02;100.00;100910.97;5070340;28;20048;-79
2023/02/05 07:18:03;;;;;;;5.43;2.80;;;;;;;0.06;100.00;100934.69;5070761;28;20140;-79
2023/02/05 07:20:30;;;;;;;8.82;3.25;;;;;;;0.00;100.00;100932.31;5064368;28;20056;-79
2023/02/05 07:22:56;;;;;;;4.93;2.42;;;;;;;0.08;100.00;100919.44;5060587;28;20500;-79
2023/02/05 07:25:24;;;;;;;5.55;3.30;;;;;;;0.26;100.00;100931.03;5070090;28;20051;-79
2023/02/05 07:27:51;;;;;;;6.45;2.65;;;;;;;0.23;100.00;100927.66;5070460;28;20062;-79
2023/02/05 07:30:18;;;;;;;4.18;2.53;;;;;;;0.33;100.00;100920.88;5066027;28;20048;-79
2023/02/05 07:32:44;;;;;;;5.90;2.72;;;;;;;0.33;100.00;100924.44;5058291;28;20049;-79
2023/02/05 07:35:11;;;;;;;4.60;2.78;;;;;;;0.25;100.00;100901.69;5070346;28;20053;-79
2023/02/05 07:37:38;;;;;;;7.70;2.78;;;;;;;0.47;100.00;100909.53;5063791;28;20044;-79
2023/02/05 07:40:05;;;;;;;12.63;2.80;;;;;;;0.45;100.00;100914.94;5058472;28;20044;-79
2023/02/05 07:42:33;;;;;;;7.93;3.55;;;;;;;0.48;100.00;100887.16;5061423;28;20049;-79
2023/02/05 07:45:00;;;;;;;4.75;2.75;;;;;;;0.46;100.00;100884.53;5065433;28;20070;-79
2023/02/05 07:47:26;;;;;;;7.60;3.35;;;;;;;0.56;100.00;100895.66;5069325;28;20044;-79
2023/02/05 07:49:53;;;;;;;6.28;2.75;;;;;;;0.64;100.00;100896.13;5059494;28;20617;-79
2023/02/05 07:52:19;;;;;;;6.65;3.85;;;;;;;0.61;100.00;100882.91;5060455;28;20056;-79
2023/02/05 07:54:46;;;;;;;10.07;4.35;;;;;;;0.64;100.00;100868.50;5069644;28;20048;-79
2023/02/05 07:57:12;;;;;;;5.78;3.70;;;;;;;0.79;100.00;100877.53;5066126;28;20408;-79
2023/02/05 07:59:40;;;;;;;5.22;3.33;;;;;;;0.80;100.00;100865.88;5070189;28;20048;-79
2023/02/05 08:02:07;;;;;;;7.88;3.90;;;;;;;0.69;100.00;100863.75;5056884;28;20044;-80
2023/02/05 08:04:33;;;;;;;6.97;4.30;;;;;;;0.79;100.00;100890.94;5060615;28;20040;-79
2023/02/05 08:07:00;;;;;;;10.95;4.00;;;;;;;0.77;100.00;100903.50;5056276;28;20241;-79
2023/02/05 08:09:27;;;;;;;12.23;3.63;;;;;;;0.67;100.00;100897.78;5064301;28;20276;-79
2023/02/05 08:11:53;;;;;;;13.95;4.53;;;;;;;0.68;100.00;100888.81;5065970;28;20051;-79
2023/02/05 08:14:20;;;;;;;12.77;4.40;;;;;;;0.84;100.00;100902.25;5066545;28;20503;-79
2023/02/05 08:16:48;;;;;;;9.88;3.75;;;;;;;0.85;100.00;100885.25;5062599;28;20055;-79
2023/02/05 08:19:17;;;;;;;6.50;3.70;;;;;;;0.70;100.00;100871.72;5070137;28;20040;-79
2023/02/05 08:21:44;;;;;;;10.77;3.28;;;;;;;0.90;100.00;100893.03;5053815;28;20522;-79
2023/02/05 08:24:11;;;;;;;6.97;3.88;;;;;;;0.91;100.00;100908.19;5068379;28;20059;-79
2023/02/05 08:26:38;;;;;;;3.72;3.03;;;;;;;0.79;100.00;100881.09;5073263;28;20044;-80
2023/02/05 08:29:07;;;;;;;7.22;3.85;;;;;;;0.94;100.00;100890.13;5069553;28;20056;-79
2023/02/05 08:31:34;;;;;;;6.07;3.70;;;;;;;1.03;100.00;100881.59;5057701;28;20044;-79
2023/02/05 08:34:02;;;;;;;8.00;4.13;;;;;;;1.12;100.00;100884.75;5060471;28;20040;-79
2023/02/05 08:36:29;;;;;;;11.57;3.90;;;;;;;1.08;100.00;100859.06;5068421;28;20041;-79
2023/02/05 08:38:55;;;;;;;10.13;4.30;;;;;;;1.11;100.00;100850.88;5068082;28;20049;-79
2023/02/05 08:41:22;;;;;;;13.07;4.63;;;;;;;1.22;100.00;100867.22;5071011;28;20051;-80
2023/02/05 08:43:50;;;;;;;8.98;3.95;;;;;;;1.27;100.00;100854.44;5068655;28;20048;-79
2023/02/05 08:46:19;;;;;;;9.57;4.32;;;;;;;1.45;100.00;100870.47;5063358;28;20044;-79
2023/02/05 08:48:46;;;;;;;10.40;3.97;;;;;;;1.45;100.00;100851.72;5066195;28;20499;-79
2023/02/05 08:51:15;;;;;;;6.10;3.75;;;;;;;1.46;100.00;100838.22;5068900;28;20179;-79
2023/02/05 08:53:42;;;;;;;12.80;4.60;;;;;;;1.53;100.00;100836.91;5069336;28;20041;-79
2023/02/05 08:56:10;;;;;;;6.93;3.92;;;;;;;1.54;100.00;100832.44;5063792;28;20041;-79
2023/02/05 08:58:40;;;;;;;11.45;3.65;;;;;;;1.70;100.00;100848.50;5069778;28;20059;-79
2023/02/05 09:01:09;;;;;;;8.60;3.70;;;;;;;1.55;100.00;100820.72;5072551;28;20064;-79
2023/02/05 09:03:37;;;;;;;9.90;4.00;;;;;;;1.61;100.00;100838.28;5067682;28;20045;-79
2023/02/05 09:06:06;;;;;;;7.90;4.03;;;;;;;1.63;100.00;100841.78;5061705;28;20060;-79
2023/02/05 09:08:34;;;;;;;10.07;3.85;;;;;;;1.49;100.00;100800.53;5064721;28;20484;-79
2023/02/05 09:11:00;;;;;;;9.63;4.97;;;;;;;1.63;100.00;100826.53;5072901;28;20476;-79
2023/02/05 09:13:27;;;;;;;12.07;3.97;;;;;;;1.60;100.00;100818.69;5071450;28;20044;-79
2023/02/05 09:15:54;;;;;;;12.07;4.50;;;;;;;1.59;100.00;100798.16;5072785;28;20055;-79
2023/02/05 09:18:20;;;;;;;13.18;4.85;;;;;;;1.65;100.00;100813.06;5072730;28;20052;-79
2023/02/05 09:20:48;;;;;;;9.98;4.82;;;;;;;1.59;100.00;100793.66;5067987;28;20055;-79
2023/02/05 09:23:16;;;;;;;8.68;4.75;;;;;;;1.72;100.00;100809.06;5071584;28;20044;-79
2023/02/05 09:25:44;;;;;;;9.52;4.93;;;;;;;1.74;100.00;100796.44;5072406;28;20054;-79
2023/02/05 09:28:13;;;;;;;9.65;4.78;;;;;;;1.79;100.00;100804.22;5072440;28;20048;-80
2023/02/05 09:30:42;;;;;;;8.77;4.78;;;;;;;1.77;100.00;100809.66;5057644;28;20045;-79
2023/02/05 09:33:09;;;;;;;16.85;5.28;;;;;;;1.77;100.00;100798.94;5051674;28;20048;-79
2023/02/05 09:35:36;;;;;;;11.30;5.03;;;;;;;1.72;100.00;100783.13;5056113;28;20040;-80
2023/02/05 09:38:04;;;;;;;17.35;5.75;;;;;;;1.86;100.00;100797.53;5063079;28;20049;-80
2023/02/05 09:40:35;;;;;;;14.13;5.78;;;;;;;1.71;100.00;100773.34;5063724;28;20052;-80
2023/02/05 09:43:16;;;;;;;14.80;6.53;;;;;;;1.82;100.00;100782.56;5071658;28;20403;-80
2023/02/05 09:45:54;;;;;;;13.10;6.05;;;;;;;1.81;100.00;100796.94;5071593;28;20048;-80
2023/02/05 09:48:48;;;;;;;12.48;7.07;;;;;;;1.79;100.00;100788.97;5072224;28;20048;-80
2023/02/05 09:51:17;;;;;;;16.35;6.47;;;;;;;1.62;100.00;100765.81;5063003;28;20125;-80
2023/02/05 09:53:48;;;;;;;12.75;6.55;;;;;;;1.58;100.00;100775.88;5070048;28;20393;-80
2023/02/05 09:56:17;;;;;;;15.80;7.38;;;;;;;1.64;100.00;100763.06;5069596;28;20143;-79
2023/02/05 09:58:48;;;;;;;16.77;7.43;;;;;;;1.67;100.00;100768.25;5071768;28;20044;-80
2023/02/05 10:01:21;;;;;;;11.32;5.95;;;;;;;1.81;100.00;100764.75;5070501;28;20408;-80
2023/02/05 10:03:52;;;;;;;17.13;7.30;;;;;;;1.90;100.00;100778.50;5068249;28;20135;-80
2023/02/05 10:06:47;;;;;;;17.92;7.93;;;;;;;1.86;100.00;100781.47;5070423;28;20040;-80
2023/02/05 10:09:32;;;;;;;13.65;6.95;;;;;;;1.93;100.00;100777.47;5071704;28;20053;-80
2023/02/05 10:12:05;;;;;;;16.02;6.93;;;;;;;1.75;100.00;100753.44;5067539;28;20047;-80
2023/02/05 10:14:43;;;;;;;15.25;7.07;;;;;;;1.58;100.00;100756.22;5062965;28;20381;-80
2023/02/05 10:17:34;;;;;;;18.92;6.28;;;;;;;1.75;100.00;100749.91;5071836;28;20055;-79
2023/02/05 10:20:15;;;;;;;10.20;6.03;;;;;;;1.83;100.00;100777.13;5062552;28;20044;-80
2023/02/05 10:22:53;;;;;;;12.68;6.30;;;;;;;1.81;100.00;100765.63;5066534;28;20059;-80
2023/02/05 10:25:50;;;;;;;13.93;6.90;;;;;;;1.82;100.00;100761.97;5073290;28;20051;-81
2023/02/05 10:28:40;;;;;;;16.60;7.10;;;;;;;1.87;100.00;100753.69;5051393;28;20056;-80
2023/02/05 10:31:17;;;;;;;18.38;8.38;;;;;;;1.83;100.00;100753.00;5066406;28;20050;-80
2023/02/05 10:33:48;;;;;;;21.48;7.72;;;;;;;1.75;100.00;100733.81;5065145;28;20068;-80
2023/02/05 10:36:20;;;;;;;15.20;7.32;;;;;;;1.80;100.00;100733.53;5059839;28;20041;-80
2023/02/05 10:38:49;;;;;;;18.60;7.47;;;;;;;1.85;100.00;100739.50;5052553;28;20094;-80
2023/02/05 10:41:24;;;;;;;16.85;7.18;;;;;;;1.80;100.00;100725.50;5068327;28;20140;-80
2023/02/05 10:43:55;;;;;;;11.63;6.22;;;;;;;1.86;100.00;100742.09;5065187;28;20044;-80
2023/02/05 10:46:30;;;;;;;16.88;7.10;;;;;;;2.01;100.00;100753.72;5068855;28;20060;-80
2023/02/05 10:49:01;;;;;;;20.13;7.80;;;;;;;1.85;100.00;100724.28;5069037;28;20052;-80
2023/02/05 10:51:32;;;;;;;26.75;8.07;;;;;;;1.83;100.00;100695.81;5054242;28;20044;-80
2023/02/05 10:54:00;;;;;;;14.13;6.28;;;;;;;1.93;100.00;100705.03;5067582;28;20399;-81
2023/02/05 10:56:27;;;;;;;21.05;7.80;;;;;;;2.05;100.00;100722.22;5068854;28;20079;-80
2023/02/05 10:58:55;;;;;;;17.02;6.68;;;;;;;2.16;100.00;100722.44;5062991;28;20044;-80
2023/02/05 11:01:29;;;;;;;13.13;6.53;;;;;;;1.99;100.00;100699.31;5065572;28;20051;-80
2023/02/05 11:04:00;;;;;;;14.18;6.65;;;;;;;2.11;100.00;100700.41;5067328;28;20164;-80
2023/02/05 11:06:30;;;;;;;14.75;7.28;;;;;;;2.09;100.00;100688.88;5068522;28;20139;-80
2023/02/05 11:08:57;;;;;;;20.30;9.13;;;;;;;2.20;100.00;100702.50;5066525;28;20040;-80
2023/02/05 11:11:27;;;;;;;17.48;6.80;;;;;;;2.17;100.00;100675.00;5068845;28;20048;-80
2023/02/05 11:13:57;;;;;;;19.20;8.20;;;;;;;2.37;100.00;100692.56;5066488;28;20681;-80
2023/02/05 11:16:36;;;;;;;14.98;7.13;;;;;;;2.11;100.00;100685.16;5064944;28;20456;-80
2023/02/05 11:19:03;;;;;;;18.27;7.73;;;;;;;2.20;100.00;100698.94;5068289;28;20049;-80
2023/02/05 11:21:48;;;;;;;15.90;6.90;;;;;;;2.16;100.00;100687.56;5068027;28;20295;-80
2023/02/05 11:24:23;;;;;;;15.40;7.55;;;;;;;2.34;100.00;100696.28;5067874;28;20044;-80
2023/02/05 11:26:49;;;;;;;14.15;7.35;;;;;;;2.37;100.00;100671.94;5064703;28;20056;-80
2023/02/05 11:29:20;;;;;;;18.70;7.88;;;;;;;2.48;100.00;100685.56;5063609;28;20045;-80
2023/02/05 11:31:48;;;;;;;19.02;9.18;;;;;;;2.51;100.00;100697.06;5066702;28;20057;-80
2023/02/05 11:34:18;;;;;;;14.73;8.02;;;;;;;2.32;100.00;100671.38;5067395;28;20488;-80